sensor_id;sensor_type;location;lat;lon;timestamp;P1;durP1;ratioP1;P2;durP2;ratioP2
74908;SDS011;63468;52.058;4.824;2023-06-22T00:01:54;23.35;;;15.10;;
74908;SDS011;63468;52.058;4.824;2023-06-22T00:04:19;19.20;;;13.60;;
74908;SDS011;63468;52.058;4.824;2023-06-22T00:06:44;20.52;;;15.07;;
74908;SDS011;63468;52.058;4.824;2023-06-22T00:09:10;19.83;;;13.70;;
74908;SDS011;63468;52.058;4.824;2023-06-22T00:11:35;23.30;;;14.43;;
74908;SDS011;63468;52.058;4.824;2023-06-22T00:14:02;23.60;;;15.98;;
74908;SDS011;63468;52.058;4.824;2023-06-22T00:16:27;21.13;;;15.20;;
74908;SDS011;63468;52.058;4.824;2023-06-22T00:18:53;24.83;;;16.40;;
74908;SDS011;63468;52.058;4.824;2023-06-22T00:21:18;23.48;;;15.88;;
74908;SDS011;63468;52.058;4.824;2023-06-22T00:23:45;20.38;;;15.05;;
74908;SDS011;63468;52.058;4.824;2023-06-22T00:26:11;24.30;;;15.13;;
74908;SDS011;63468;52.058;4.824;2023-06-22T00:28:37;20.63;;;14.52;;
74908;SDS011;63468;52.058;4.824;2023-06-22T00:31:02;21.17;;;15.05;;
74908;SDS011;63468;52.058;4.824;2023-06-22T00:33:27;23.08;;;16.08;;
74908;SDS011;63468;52.058;4.824;2023-06-22T00:35:53;23.40;;;14.82;;
74908;SDS011;63468;52.058;4.824;2023-06-22T00:38:19;22.17;;;14.98;;
74908;SDS011;63468;52.058;4.824;2023-06-22T00:40:44;19.52;;;14.38;;
74908;SDS011;63468;52.058;4.824;2023-06-22T00:43:10;20.50;;;15.13;;
74908;SDS011;63468;52.058;4.824;2023-06-22T00:45:35;20.25;;;14.88;;
74908;SDS011;63468;52.058;4.824;2023-06-22T00:48:01;22.58;;;15.52;;
74908;SDS011;63468;52.058;4.824;2023-06-22T00:50:27;24.05;;;16.20;;
74908;SDS011;63468;52.058;4.824;2023-06-22T00:52:59;23.05;;;15.75;;
74908;SDS011;63468;52.058;4.824;2023-06-22T00:55:33;22.55;;;16.10;;
74908;SDS011;63468;52.058;4.824;2023-06-22T00:58:02;27.02;;;17.25;;
74908;SDS011;63468;52.058;4.824;2023-06-22T01:00:30;23.60;;;16.80;;
74908;SDS011;63468;52.058;4.824;2023-06-22T01:02:57;25.80;;;17.23;;
74908;SDS011;63468;52.058;4.824;2023-06-22T01:05:23;25.67;;;16.20;;
74908;SDS011;63468;52.058;4.824;2023-06-22T01:10:51;22.08;;;16.60;;
74908;SDS011;63468;52.058;4.824;2023-06-22T01:15:53;29.00;;;18.17;;
74908;SDS011;63468;52.058;4.824;2023-06-22T01:18:25;26.15;;;17.77;;
74908;SDS011;63468;52.058;4.824;2023-06-22T01:20:54;28.85;;;19.27;;
74908;SDS011;63468;52.058;4.824;2023-06-22T01:23:29;29.20;;;19.83;;
74908;SDS011;63468;52.058;4.824;2023-06-22T01:26:17;28.33;;;19.83;;
74908;SDS011;63468;52.058;4.824;2023-06-22T01:28:47;29.05;;;20.25;;
74908;SDS011;63468;52.058;4.824;2023-06-22T01:31:15;29.67;;;20.55;;
74908;SDS011;63468;52.058;4.824;2023-06-22T01:33:43;28.67;;;20.20;;
74908;SDS011;63468;52.058;4.824;2023-06-22T01:36:09;31.88;;;21.35;;
74908;SDS011;63468;52.058;4.824;2023-06-22T01:38:35;33.13;;;21.88;;
74908;SDS011;63468;52.058;4.824;2023-06-22T01:41:02;33.08;;;21.73;;
74908;SDS011;63468;52.058;4.824;2023-06-22T01:43:28;28.67;;;19.83;;
74908;SDS011;63468;52.058;4.824;2023-06-22T01:45:54;28.95;;;20.52;;
74908;SDS011;63468;52.058;4.824;2023-06-22T01:48:20;30.65;;;19.10;;
74908;SDS011;63468;52.058;4.824;2023-06-22T01:50:46;29.60;;;21.85;;
74908;SDS011;63468;52.058;4.824;2023-06-22T01:53:12;35.53;;;21.85;;
74908;SDS011;63468;52.058;4.824;2023-06-22T01:55:37;38.38;;;23.30;;
74908;SDS011;63468;52.058;4.824;2023-06-22T01:58:02;33.28;;;24.08;;
74908;SDS011;63468;52.058;4.824;2023-06-22T02:00:28;38.17;;;24.05;;
74908;SDS011;63468;52.058;4.824;2023-06-22T02:02:59;33.17;;;23.02;;
74908;SDS011;63468;52.058;4.824;2023-06-22T02:05:26;33.03;;;23.00;;
74908;SDS011;63468;52.058;4.824;2023-06-22T02:10:36;35.80;;;22.55;;
74908;SDS011;63468;52.058;4.824;2023-06-22T02:13:04;34.00;;;24.10;;
74908;SDS011;63468;52.058;4.824;2023-06-22T02:15:30;35.28;;;21.75;;
74908;SDS011;63468;52.058;4.824;2023-06-22T02:17:56;37.15;;;22.13;;
74908;SDS011;63468;52.058;4.824;2023-06-22T02:20:21;34.33;;;22.63;;
74908;SDS011;63468;52.058;4.824;2023-06-22T02:22:48;33.67;;;23.23;;
74908;SDS011;63468;52.058;4.824;2023-06-22T02:25:14;32.78;;;23.80;;
74908;SDS011;63468;52.058;4.824;2023-06-22T02:27:39;33.75;;;22.90;;
74908;SDS011;63468;52.058;4.824;2023-06-22T02:30:06;34.45;;;23.73;;
74908;SDS011;63468;52.058;4.824;2023-06-22T02:32:35;36.08;;;23.85;;
74908;SDS011;63468;52.058;4.824;2023-06-22T02:35:00;35.95;;;25.70;;
74908;SDS011;63468;52.058;4.824;2023-06-22T02:37:29;38.28;;;25.85;;
74908;SDS011;63468;52.058;4.824;2023-06-22T02:39:57;37.85;;;24.65;;
74908;SDS011;63468;52.058;4.824;2023-06-22T02:42:23;42.88;;;26.55;;
74908;SDS011;63468;52.058;4.824;2023-06-22T02:44:48;39.60;;;24.30;;
74908;SDS011;63468;52.058;4.824;2023-06-22T02:47:13;35.38;;;24.08;;
74908;SDS011;63468;52.058;4.824;2023-06-22T02:49:40;44.40;;;25.60;;
74908;SDS011;63468;52.058;4.824;2023-06-22T02:52:06;39.10;;;25.95;;
74908;SDS011;63468;52.058;4.824;2023-06-22T02:54:32;38.30;;;25.15;;
74908;SDS011;63468;52.058;4.824;2023-06-22T02:56:58;39.75;;;26.02;;
74908;SDS011;63468;52.058;4.824;2023-06-22T02:59:23;33.25;;;24.52;;
74908;SDS011;63468;52.058;4.824;2023-06-22T03:01:49;43.10;;;26.20;;
74908;SDS011;63468;52.058;4.824;2023-06-22T03:04:15;39.30;;;25.42;;
74908;SDS011;63468;52.058;4.824;2023-06-22T03:06:40;38.33;;;25.05;;
74908;SDS011;63468;52.058;4.824;2023-06-22T03:09:05;42.08;;;25.67;;
74908;SDS011;63468;52.058;4.824;2023-06-22T03:11:31;41.05;;;25.65;;
74908;SDS011;63468;52.058;4.824;2023-06-22T03:13:57;37.50;;;24.17;;
74908;SDS011;63468;52.058;4.824;2023-06-22T03:16:23;37.60;;;23.60;;
74908;SDS011;63468;52.058;4.824;2023-06-22T03:18:48;37.58;;;24.45;;
74908;SDS011;63468;52.058;4.824;2023-06-22T03:21:13;32.75;;;22.77;;
74908;SDS011;63468;52.058;4.824;2023-06-22T03:23:40;36.30;;;23.60;;
74908;SDS011;63468;52.058;4.824;2023-06-22T03:26:05;37.90;;;25.35;;
74908;SDS011;63468;52.058;4.824;2023-06-22T03:28:31;36.22;;;25.27;;
74908;SDS011;63468;52.058;4.824;2023-06-22T03:30:57;41.17;;;25.70;;
74908;SDS011;63468;52.058;4.824;2023-06-22T03:33:22;42.75;;;27.63;;
74908;SDS011;63468;52.058;4.824;2023-06-22T03:35:47;41.42;;;25.27;;
74908;SDS011;63468;52.058;4.824;2023-06-22T03:38:13;42.55;;;25.20;;
74908;SDS011;63468;52.058;4.824;2023-06-22T03:40:39;42.05;;;24.42;;
74908;SDS011;63468;52.058;4.824;2023-06-22T03:43:04;38.92;;;24.65;;
74908;SDS011;63468;52.058;4.824;2023-06-22T03:45:29;36.38;;;23.00;;
74908;SDS011;63468;52.058;4.824;2023-06-22T03:47:55;39.90;;;25.13;;
74908;SDS011;63468;52.058;4.824;2023-06-22T03:50:20;37.45;;;24.98;;
74908;SDS011;63468;52.058;4.824;2023-06-22T03:52:46;41.40;;;24.13;;
74908;SDS011;63468;52.058;4.824;2023-06-22T03:55:11;36.67;;;24.48;;
74908;SDS011;63468;52.058;4.824;2023-06-22T03:57:37;45.42;;;26.25;;
74908;SDS011;63468;52.058;4.824;2023-06-22T04:00:02;42.78;;;26.63;;
74908;SDS011;63468;52.058;4.824;2023-06-22T04:02:30;38.28;;;24.92;;
74908;SDS011;63468;52.058;4.824;2023-06-22T04:04:56;45.13;;;27.40;;
74908;SDS011;63468;52.058;4.824;2023-06-22T04:07:21;37.55;;;25.30;;
74908;SDS011;63468;52.058;4.824;2023-06-22T04:09:46;37.50;;;25.55;;
74908;SDS011;63468;52.058;4.824;2023-06-22T04:12:12;37.50;;;24.15;;
74908;SDS011;63468;52.058;4.824;2023-06-22T04:14:37;35.58;;;25.08;;
74908;SDS011;63468;52.058;4.824;2023-06-22T04:17:02;35.40;;;25.00;;
74908;SDS011;63468;52.058;4.824;2023-06-22T04:19:28;31.70;;;23.40;;
74908;SDS011;63468;52.058;4.824;2023-06-22T04:21:53;30.60;;;21.52;;
74908;SDS011;63468;52.058;4.824;2023-06-22T04:24:18;33.92;;;21.73;;
74908;SDS011;63468;52.058;4.824;2023-06-22T04:26:44;31.33;;;21.58;;
74908;SDS011;63468;52.058;4.824;2023-06-22T04:29:11;30.50;;;21.42;;
74908;SDS011;63468;52.058;4.824;2023-06-22T04:31:37;29.38;;;21.73;;
74908;SDS011;63468;52.058;4.824;2023-06-22T04:34:03;31.55;;;22.27;;
74908;SDS011;63468;52.058;4.824;2023-06-22T04:36:38;29.08;;;21.15;;
74908;SDS011;63468;52.058;4.824;2023-06-22T04:39:08;28.10;;;20.27;;
74908;SDS011;63468;52.058;4.824;2023-06-22T04:41:38;28.48;;;20.25;;
74908;SDS011;63468;52.058;4.824;2023-06-22T04:44:10;29.45;;;20.02;;
74908;SDS011;63468;52.058;4.824;2023-06-22T04:46:48;27.87;;;19.37;;
74908;SDS011;63468;52.058;4.824;2023-06-22T04:49:19;28.00;;;19.27;;
74908;SDS011;63468;52.058;4.824;2023-06-22T04:51:45;25.13;;;17.95;;
74908;SDS011;63468;52.058;4.824;2023-06-22T04:54:10;24.73;;;17.70;;
74908;SDS011;63468;52.058;4.824;2023-06-22T04:56:35;22.05;;;16.20;;
74908;SDS011;63468;52.058;4.824;2023-06-22T04:59:01;22.92;;;16.08;;
74908;SDS011;63468;52.058;4.824;2023-06-22T05:01:28;25.17;;;17.13;;
74908;SDS011;63468;52.058;4.824;2023-06-22T05:03:53;24.98;;;16.83;;
74908;SDS011;63468;52.058;4.824;2023-06-22T05:06:22;26.13;;;16.80;;
74908;SDS011;63468;52.058;4.824;2023-06-22T05:08:50;23.45;;;16.90;;
74908;SDS011;63468;52.058;4.824;2023-06-22T05:11:22;24.30;;;17.20;;
74908;SDS011;63468;52.058;4.824;2023-06-22T05:13:50;24.65;;;17.50;;
74908;SDS011;63468;52.058;4.824;2023-06-22T05:16:16;25.50;;;17.35;;
74908;SDS011;63468;52.058;4.824;2023-06-22T05:18:41;26.63;;;20.20;;
74908;SDS011;63468;52.058;4.824;2023-06-22T05:21:08;27.30;;;19.63;;
74908;SDS011;63468;52.058;4.824;2023-06-22T05:23:34;26.63;;;20.23;;
74908;SDS011;63468;52.058;4.824;2023-06-22T05:25:59;24.75;;;20.33;;
74908;SDS011;63468;52.058;4.824;2023-06-22T05:28:24;29.17;;;20.92;;
74908;SDS011;63468;52.058;4.824;2023-06-22T05:30:50;28.17;;;20.35;;
74908;SDS011;63468;52.058;4.824;2023-06-22T05:33:15;23.50;;;19.48;;
74908;SDS011;63468;52.058;4.824;2023-06-22T05:35:40;27.30;;;19.95;;
74908;SDS011;63468;52.058;4.824;2023-06-22T05:38:06;25.98;;;19.77;;
74908;SDS011;63468;52.058;4.824;2023-06-22T05:40:32;25.63;;;18.67;;
74908;SDS011;63468;52.058;4.824;2023-06-22T05:42:57;21.77;;;16.88;;
74908;SDS011;63468;52.058;4.824;2023-06-22T05:45:22;25.77;;;17.52;;
74908;SDS011;63468;52.058;4.824;2023-06-22T05:47:48;26.45;;;17.85;;
74908;SDS011;63468;52.058;4.824;2023-06-22T05:50:13;23.42;;;18.23;;
74908;SDS011;63468;52.058;4.824;2023-06-22T05:52:39;25.70;;;17.20;;
74908;SDS011;63468;52.058;4.824;2023-06-22T05:55:04;23.70;;;16.98;;
74908;SDS011;63468;52.058;4.824;2023-06-22T05:57:30;20.60;;;15.80;;
74908;SDS011;63468;52.058;4.824;2023-06-22T05:59:55;24.33;;;17.00;;
74908;SDS011;63468;52.058;4.824;2023-06-22T06:02:20;24.42;;;16.95;;
74908;SDS011;63468;52.058;4.824;2023-06-22T06:04:46;23.08;;;16.73;;
74908;SDS011;63468;52.058;4.824;2023-06-22T06:07:11;24.13;;;16.23;;
74908;SDS011;63468;52.058;4.824;2023-06-22T06:09:36;22.17;;;16.20;;
74908;SDS011;63468;52.058;4.824;2023-06-22T06:12:02;23.13;;;16.60;;
74908;SDS011;63468;52.058;4.824;2023-06-22T06:14:28;23.52;;;16.23;;
74908;SDS011;63468;52.058;4.824;2023-06-22T06:16:53;22.65;;;16.02;;
74908;SDS011;63468;52.058;4.824;2023-06-22T06:19:18;23.85;;;16.92;;
74908;SDS011;63468;52.058;4.824;2023-06-22T06:21:44;23.33;;;16.58;;
74908;SDS011;63468;52.058;4.824;2023-06-22T06:24:09;21.67;;;16.40;;
74908;SDS011;63468;52.058;4.824;2023-06-22T06:26:34;24.13;;;16.85;;
74908;SDS011;63468;52.058;4.824;2023-06-22T06:29:00;20.20;;;15.85;;
74908;SDS011;63468;52.058;4.824;2023-06-22T06:31:27;23.60;;;14.95;;
74908;SDS011;63468;52.058;4.824;2023-06-22T06:33:53;21.08;;;15.52;;
74908;SDS011;63468;52.058;4.824;2023-06-22T06:36:19;22.65;;;16.52;;
74908;SDS011;63468;52.058;4.824;2023-06-22T06:38:44;21.35;;;16.92;;
74908;SDS011;63468;52.058;4.824;2023-06-22T06:41:11;25.92;;;17.65;;
74908;SDS011;63468;52.058;4.824;2023-06-22T06:43:37;26.70;;;17.65;;
74908;SDS011;63468;52.058;4.824;2023-06-22T06:46:02;24.25;;;17.30;;
74908;SDS011;63468;52.058;4.824;2023-06-22T06:48:28;22.55;;;17.15;;
74908;SDS011;63468;52.058;4.824;2023-06-22T06:50:53;23.85;;;16.63;;
74908;SDS011;63468;52.058;4.824;2023-06-22T06:53:18;22.25;;;17.63;;
74908;SDS011;63468;52.058;4.824;2023-06-22T06:55:44;20.73;;;16.85;;
74908;SDS011;63468;52.058;4.824;2023-06-22T06:58:10;21.95;;;16.40;;
74908;SDS011;63468;52.058;4.824;2023-06-22T07:00:38;24.73;;;17.25;;
74908;SDS011;63468;52.058;4.824;2023-06-22T07:03:03;21.75;;;17.40;;
74908;SDS011;63468;52.058;4.824;2023-06-22T07:05:29;23.30;;;17.58;;
74908;SDS011;63468;52.058;4.824;2023-06-22T07:07:54;23.30;;;17.27;;
74908;SDS011;63468;52.058;4.824;2023-06-22T07:10:20;25.02;;;17.27;;
74908;SDS011;63468;52.058;4.824;2023-06-22T07:12:45;27.02;;;17.02;;
74908;SDS011;63468;52.058;4.824;2023-06-22T07:15:11;25.17;;;18.27;;
74908;SDS011;63468;52.058;4.824;2023-06-22T07:17:37;22.48;;;17.65;;
74908;SDS011;63468;52.058;4.824;2023-06-22T07:20:06;26.00;;;19.27;;
74908;SDS011;63468;52.058;4.824;2023-06-22T07:22:37;23.75;;;18.40;;
74908;SDS011;63468;52.058;4.824;2023-06-22T07:25:03;23.52;;;19.05;;
74908;SDS011;63468;52.058;4.824;2023-06-22T07:27:34;27.42;;;20.60;;
74908;SDS011;63468;52.058;4.824;2023-06-22T07:30:00;28.55;;;20.38;;
74908;SDS011;63468;52.058;4.824;2023-06-22T07:32:26;31.45;;;21.98;;
74908;SDS011;63468;52.058;4.824;2023-06-22T07:34:53;32.45;;;21.05;;
74908;SDS011;63468;52.058;4.824;2023-06-22T07:37:18;27.48;;;20.85;;
74908;SDS011;63468;52.058;4.824;2023-06-22T07:39:44;29.80;;;23.30;;
74908;SDS011;63468;52.058;4.824;2023-06-22T07:42:09;25.08;;;19.63;;
74908;SDS011;63468;52.058;4.824;2023-06-22T07:44:35;28.58;;;22.45;;
74908;SDS011;63468;52.058;4.824;2023-06-22T07:47:00;29.50;;;22.13;;
74908;SDS011;63468;52.058;4.824;2023-06-22T07:49:27;33.38;;;24.38;;
74908;SDS011;63468;52.058;4.824;2023-06-22T07:51:53;30.02;;;22.48;;
74908;SDS011;63468;52.058;4.824;2023-06-22T07:54:18;28.92;;;21.90;;
74908;SDS011;63468;52.058;4.824;2023-06-22T07:56:43;30.48;;;22.73;;
74908;SDS011;63468;52.058;4.824;2023-06-22T07:59:09;30.60;;;23.15;;
74908;SDS011;63468;52.058;4.824;2023-06-22T08:01:34;30.65;;;22.65;;
74908;SDS011;63468;52.058;4.824;2023-06-22T08:03:59;30.40;;;23.42;;
74908;SDS011;63468;52.058;4.824;2023-06-22T08:06:25;30.05;;;21.90;;
74908;SDS011;63468;52.058;4.824;2023-06-22T08:08:50;30.38;;;23.83;;
74908;SDS011;63468;52.058;4.824;2023-06-22T08:11:17;29.17;;;22.60;;
74908;SDS011;63468;52.058;4.824;2023-06-22T08:13:43;29.17;;;22.27;;
74908;SDS011;63468;52.058;4.824;2023-06-22T08:16:08;26.58;;;21.27;;
74908;SDS011;63468;52.058;4.824;2023-06-22T08:18:33;28.27;;;21.08;;
74908;SDS011;63468;52.058;4.824;2023-06-22T08:20:59;25.38;;;20.52;;
74908;SDS011;63468;52.058;4.824;2023-06-22T08:23:24;25.00;;;21.25;;
74908;SDS011;63468;52.058;4.824;2023-06-22T08:25:49;27.05;;;19.67;;
74908;SDS011;63468;52.058;4.824;2023-06-22T08:28:15;28.95;;;19.30;;
74908;SDS011;63468;52.058;4.824;2023-06-22T08:30:41;20.73;;;16.67;;
74908;SDS011;63468;52.058;4.824;2023-06-22T08:33:06;21.35;;;17.23;;
74908;SDS011;63468;52.058;4.824;2023-06-22T08:35:31;20.63;;;16.83;;
74908;SDS011;63468;52.058;4.824;2023-06-22T08:37:57;20.63;;;16.90;;
74908;SDS011;63468;52.058;4.824;2023-06-22T08:40:23;21.20;;;17.10;;
74908;SDS011;63468;52.058;4.824;2023-06-22T08:42:49;23.95;;;18.30;;
74908;SDS011;63468;52.058;4.824;2023-06-22T08:45:14;24.88;;;18.83;;
74908;SDS011;63468;52.058;4.824;2023-06-22T08:47:40;21.38;;;18.65;;
74908;SDS011;63468;52.058;4.824;2023-06-22T08:50:06;24.92;;;18.58;;
74908;SDS011;63468;52.058;4.824;2023-06-22T08:52:35;23.02;;;18.92;;
74908;SDS011;63468;52.058;4.824;2023-06-22T08:55:01;22.20;;;19.00;;
74908;SDS011;63468;52.058;4.824;2023-06-22T08:57:26;22.48;;;19.02;;
74908;SDS011;63468;52.058;4.824;2023-06-22T08:59:52;21.33;;;17.85;;
74908;SDS011;63468;52.058;4.824;2023-06-22T09:02:18;21.23;;;17.20;;
74908;SDS011;63468;52.058;4.824;2023-06-22T09:04:44;23.92;;;17.50;;
74908;SDS011;63468;52.058;4.824;2023-06-22T09:07:10;21.75;;;17.90;;
74908;SDS011;63468;52.058;4.824;2023-06-22T09:09:36;19.52;;;16.20;;
74908;SDS011;63468;52.058;4.824;2023-06-22T09:12:02;21.95;;;16.63;;
74908;SDS011;63468;52.058;4.824;2023-06-22T09:14:27;17.13;;;14.90;;
74908;SDS011;63468;52.058;4.824;2023-06-22T09:16:52;21.52;;;16.33;;
74908;SDS011;63468;52.058;4.824;2023-06-22T09:19:17;20.73;;;17.13;;
74908;SDS011;63468;52.058;4.824;2023-06-22T09:21:43;22.15;;;17.55;;
74908;SDS011;63468;52.058;4.824;2023-06-22T09:24:08;21.38;;;16.50;;
74908;SDS011;63468;52.058;4.824;2023-06-22T09:26:33;19.85;;;16.50;;
74908;SDS011;63468;52.058;4.824;2023-06-22T09:28:59;19.75;;;16.80;;
74908;SDS011;63468;52.058;4.824;2023-06-22T09:31:24;21.02;;;18.08;;
74908;SDS011;63468;52.058;4.824;2023-06-22T09:33:52;19.83;;;17.02;;
74908;SDS011;63468;52.058;4.824;2023-06-22T09:36:18;20.92;;;17.38;;
74908;SDS011;63468;52.058;4.824;2023-06-22T09:38:44;18.08;;;15.75;;
74908;SDS011;63468;52.058;4.824;2023-06-22T09:41:09;21.33;;;17.80;;
74908;SDS011;63468;52.058;4.824;2023-06-22T09:43:34;18.00;;;16.05;;
74908;SDS011;63468;52.058;4.824;2023-06-22T09:46:01;18.95;;;15.65;;
74908;SDS011;63468;52.058;4.824;2023-06-22T09:48:27;17.17;;;15.32;;
74908;SDS011;63468;52.058;4.824;2023-06-22T09:50:53;19.00;;;15.02;;
74908;SDS011;63468;52.058;4.824;2023-06-22T09:53:18;16.98;;;15.18;;
74908;SDS011;63468;52.058;4.824;2023-06-22T09:55:44;18.23;;;15.90;;
74908;SDS011;63468;52.058;4.824;2023-06-22T09:58:09;16.88;;;15.18;;
74908;SDS011;63468;52.058;4.824;2023-06-22T10:00:35;15.98;;;14.27;;
74908;SDS011;63468;52.058;4.824;2023-06-22T10:03:00;20.30;;;16.10;;
74908;SDS011;63468;52.058;4.824;2023-06-22T10:05:25;18.58;;;15.02;;
74908;SDS011;63468;52.058;4.824;2023-06-22T10:07:51;15.93;;;14.23;;
74908;SDS011;63468;52.058;4.824;2023-06-22T10:10:16;17.63;;;14.50;;
74908;SDS011;63468;52.058;4.824;2023-06-22T10:12:42;15.23;;;13.63;;
74908;SDS011;63468;52.058;4.824;2023-06-22T10:15:10;16.35;;;14.68;;
74908;SDS011;63468;52.058;4.824;2023-06-22T10:17:35;19.60;;;14.82;;
74908;SDS011;63468;52.058;4.824;2023-06-22T10:20:00;16.55;;;14.88;;
74908;SDS011;63468;52.058;4.824;2023-06-22T10:22:36;16.73;;;14.98;;
74908;SDS011;63468;52.058;4.824;2023-06-22T10:25:01;16.90;;;14.88;;
74908;SDS011;63468;52.058;4.824;2023-06-22T10:27:26;17.38;;;15.63;;
74908;SDS011;63468;52.058;4.824;2023-06-22T10:29:52;17.52;;;15.68;;
74908;SDS011;63468;52.058;4.824;2023-06-22T10:32:17;18.00;;;16.10;;
74908;SDS011;63468;52.058;4.824;2023-06-22T10:34:42;18.27;;;15.95;;
74908;SDS011;63468;52.058;4.824;2023-06-22T10:37:07;18.90;;;16.90;;
74908;SDS011;63468;52.058;4.824;2023-06-22T10:39:33;19.13;;;17.05;;
74908;SDS011;63468;52.058;4.824;2023-06-22T10:41:58;19.45;;;17.40;;
74908;SDS011;63468;52.058;4.824;2023-06-22T10:44:23;21.83;;;18.73;;
74908;SDS011;63468;52.058;4.824;2023-06-22T10:46:49;26.48;;;19.65;;
74908;SDS011;63468;52.058;4.824;2023-06-22T10:49:14;21.33;;;19.13;;
74908;SDS011;63468;52.058;4.824;2023-06-22T10:51:39;20.55;;;18.35;;
74908;SDS011;63468;52.058;4.824;2023-06-22T10:54:05;22.63;;;19.77;;
74908;SDS011;63468;52.058;4.824;2023-06-22T10:56:30;21.17;;;18.48;;
74908;SDS011;63468;52.058;4.824;2023-06-22T10:58:55;20.95;;;18.27;;
74908;SDS011;63468;52.058;4.824;2023-06-22T11:01:21;22.63;;;17.02;;
74908;SDS011;63468;52.058;4.824;2023-06-22T11:03:46;18.02;;;15.52;;
74908;SDS011;63468;52.058;4.824;2023-06-22T11:06:11;22.65;;;15.82;;
74908;SDS011;63468;52.058;4.824;2023-06-22T11:08:37;18.60;;;16.63;;
74908;SDS011;63468;52.058;4.824;2023-06-22T11:11:02;18.75;;;15.23;;
74908;SDS011;63468;52.058;4.824;2023-06-22T11:13:27;18.30;;;15.18;;
74908;SDS011;63468;52.058;4.824;2023-06-22T11:15:52;22.67;;;17.85;;
74908;SDS011;63468;52.058;4.824;2023-06-22T11:18:18;21.77;;;18.08;;
74908;SDS011;63468;52.058;4.824;2023-06-22T11:20:43;27.92;;;20.85;;
74908;SDS011;63468;52.058;4.824;2023-06-22T11:23:09;27.90;;;21.75;;
74908;SDS011;63468;52.058;4.824;2023-06-22T11:25:36;27.92;;;22.50;;
74908;SDS011;63468;52.058;4.824;2023-06-22T11:28:03;25.95;;;22.30;;
74908;SDS011;63468;52.058;4.824;2023-06-22T11:30:29;30.33;;;22.98;;
74908;SDS011;63468;52.058;4.824;2023-06-22T11:32:55;28.98;;;22.30;;
74908;SDS011;63468;52.058;4.824;2023-06-22T11:35:21;26.35;;;22.85;;
74908;SDS011;63468;52.058;4.824;2023-06-22T11:37:47;30.60;;;24.63;;
74908;SDS011;63468;52.058;4.824;2023-06-22T11:40:12;29.75;;;23.23;;
74908;SDS011;63468;52.058;4.824;2023-06-22T11:42:37;32.05;;;25.30;;
74908;SDS011;63468;52.058;4.824;2023-06-22T11:45:04;30.52;;;24.70;;
74908;SDS011;63468;52.058;4.824;2023-06-22T11:47:30;29.52;;;25.25;;
74908;SDS011;63468;52.058;4.824;2023-06-22T11:49:55;33.47;;;25.35;;
74908;SDS011;63468;52.058;4.824;2023-06-22T11:52:21;30.05;;;25.40;;
74908;SDS011;63468;52.058;4.824;2023-06-22T11:54:46;33.20;;;23.52;;
74908;SDS011;63468;52.058;4.824;2023-06-22T11:57:11;30.58;;;23.67;;
74908;SDS011;63468;52.058;4.824;2023-06-22T11:59:37;34.13;;;23.27;;
74908;SDS011;63468;52.058;4.824;2023-06-22T12:02:02;31.33;;;23.67;;
74908;SDS011;63468;52.058;4.824;2023-06-22T12:04:28;29.05;;;24.25;;
74908;SDS011;63468;52.058;4.824;2023-06-22T12:06:53;30.00;;;24.00;;
74908;SDS011;63468;52.058;4.824;2023-06-22T12:09:19;28.35;;;23.13;;
74908;SDS011;63468;52.058;4.824;2023-06-22T12:11:44;31.77;;;24.63;;
74908;SDS011;63468;52.058;4.824;2023-06-22T12:14:09;30.13;;;22.55;;
74908;SDS011;63468;52.058;4.824;2023-06-22T12:16:35;32.72;;;22.45;;
74908;SDS011;63468;52.058;4.824;2023-06-22T12:19:00;28.40;;;22.77;;
74908;SDS011;63468;52.058;4.824;2023-06-22T12:21:25;32.20;;;23.77;;
74908;SDS011;63468;52.058;4.824;2023-06-22T12:23:51;31.95;;;24.85;;
74908;SDS011;63468;52.058;4.824;2023-06-22T12:26:16;37.83;;;25.90;;
74908;SDS011;63468;52.058;4.824;2023-06-22T12:28:41;31.95;;;25.63;;
74908;SDS011;63468;52.058;4.824;2023-06-22T12:31:07;34.47;;;24.73;;
74908;SDS011;63468;52.058;4.824;2023-06-22T12:33:32;31.80;;;24.23;;
74908;SDS011;63468;52.058;4.824;2023-06-22T12:35:57;35.35;;;24.27;;
74908;SDS011;63468;52.058;4.824;2023-06-22T12:38:23;33.33;;;23.98;;
74908;SDS011;63468;52.058;4.824;2023-06-22T12:40:50;31.17;;;23.77;;
74908;SDS011;63468;52.058;4.824;2023-06-22T12:43:15;34.10;;;24.45;;
74908;SDS011;63468;52.058;4.824;2023-06-22T12:45:41;30.45;;;22.95;;
74908;SDS011;63468;52.058;4.824;2023-06-22T12:48:06;30.02;;;23.25;;
74908;SDS011;63468;52.058;4.824;2023-06-22T12:50:33;30.88;;;24.17;;
74908;SDS011;63468;52.058;4.824;2023-06-22T12:52:58;33.53;;;25.75;;
74908;SDS011;63468;52.058;4.824;2023-06-22T12:55:25;35.10;;;28.40;;
74908;SDS011;63468;52.058;4.824;2023-06-22T12:57:50;34.25;;;26.75;;
74908;SDS011;63468;52.058;4.824;2023-06-22T13:00:15;42.28;;;30.27;;
74908;SDS011;63468;52.058;4.824;2023-06-22T13:02:41;41.67;;;32.67;;
74908;SDS011;63468;52.058;4.824;2023-06-22T13:05:07;38.35;;;34.25;;
74908;SDS011;63468;52.058;4.824;2023-06-22T13:07:33;45.75;;;41.30;;
74908;SDS011;63468;52.058;4.824;2023-06-22T13:09:58;43.67;;;38.70;;
74908;SDS011;63468;52.058;4.824;2023-06-22T13:12:24;41.28;;;37.03;;
74908;SDS011;63468;52.058;4.824;2023-06-22T13:14:49;42.58;;;38.08;;
74908;SDS011;63468;52.058;4.824;2023-06-22T13:17:14;41.90;;;36.53;;
74908;SDS011;63468;52.058;4.824;2023-06-22T13:19:40;41.78;;;37.63;;
74908;SDS011;63468;52.058;4.824;2023-06-22T13:22:09;43.45;;;38.92;;
74908;SDS011;63468;52.058;4.824;2023-06-22T13:24:54;45.22;;;40.33;;
74908;SDS011;63468;52.058;4.824;2023-06-22T13:27:20;44.28;;;39.88;;
74908;SDS011;63468;52.058;4.824;2023-06-22T13:29:45;42.50;;;38.15;;
74908;SDS011;63468;52.058;4.824;2023-06-22T13:32:10;42.45;;;38.28;;
74908;SDS011;63468;52.058;4.824;2023-06-22T13:34:35;44.63;;;40.22;;
74908;SDS011;63468;52.058;4.824;2023-06-22T13:37:01;45.25;;;41.15;;
74908;SDS011;63468;52.058;4.824;2023-06-22T13:39:26;46.85;;;42.33;;
74908;SDS011;63468;52.058;4.824;2023-06-22T13:41:51;33.58;;;30.27;;
74908;SDS011;63468;52.058;4.824;2023-06-22T13:44:17;33.33;;;30.25;;
74908;SDS011;63468;52.058;4.824;2023-06-22T13:46:42;37.30;;;33.92;;
74908;SDS011;63468;52.058;4.824;2023-06-22T13:49:07;34.30;;;31.17;;
74908;SDS011;63468;52.058;4.824;2023-06-22T13:51:32;36.17;;;32.92;;
74908;SDS011;63468;52.058;4.824;2023-06-22T13:53:58;45.83;;;42.42;;
74908;SDS011;63468;52.058;4.824;2023-06-22T13:56:23;53.90;;;49.90;;
74908;SDS011;63468;52.058;4.824;2023-06-22T13:58:48;46.40;;;42.90;;
74908;SDS011;63468;52.058;4.824;2023-06-22T14:01:14;44.03;;;40.75;;
74908;SDS011;63468;52.058;4.824;2023-06-22T14:03:39;40.08;;;36.83;;
74908;SDS011;63468;52.058;4.824;2023-06-22T14:06:04;41.45;;;38.08;;
74908;SDS011;63468;52.058;4.824;2023-06-22T14:08:30;61.88;;;57.33;;
74908;SDS011;63468;52.058;4.824;2023-06-22T14:10:55;57.67;;;53.35;;
74908;SDS011;63468;52.058;4.824;2023-06-22T14:13:20;60.10;;;55.80;;
74908;SDS011;63468;52.058;4.824;2023-06-22T14:15:46;65.00;;;60.33;;
74908;SDS011;63468;52.058;4.824;2023-06-22T14:18:13;61.78;;;57.47;;
74908;SDS011;63468;52.058;4.824;2023-06-22T14:20:39;55.03;;;51.08;;
74908;SDS011;63468;52.058;4.824;2023-06-22T14:23:05;56.95;;;53.13;;